Time;durP1;ratioP1;P1;durP2;ratioP2;P2;SDS_P1;SDS_P2;PMS_P1;PMS_P2;Temp;Humidity;BMP_temperature;BMP_pressure;BME280_temperature;BME280_humidity;BME280_pressure;Samples;Min_cycle;Max_cycle;Signal;HPM_P1;HPM_P2
2023/04/15 00:00:51;;;;;;;;;11.75;10.00;;;;;12.54;100.00;100202.69;5035917;28;45532;-73
2023/04/15 00:03:16;;;;;;;;;11.75;11.25;;;;;12.52;100.00;100193.91;5035382;28;45583;-74
2023/04/15 00:05:42;;;;;;;;;14.00;10.00;;;;;12.53;100.00;100198.31;5036501;28;45593;-72
2023/04/15 00:08:07;;;;;;;;;12.33;9.67;;;;;12.55;100.00;100191.22;5035518;28;45821;-72
2023/04/15 00:10:32;;;;;;;;;15.50;11.25;;;;;12.54;100.00;100188.59;5034879;28;61504;-72
2023/04/15 00:12:58;;;;;;;;;11.33;11.33;;;;;12.55;100.00;100177.97;5036569;28;45910;-73
2023/04/15 00:15:23;;;;;;;;;10.75;10.75;;;;;12.54;100.00;100185.94;5035227;28;45486;-73
2023/04/15 00:17:51;;;;;;;;;16.00;12.50;;;;;12.53;100.00;100185.06;5035256;28;69823;-72
2023/04/15 00:20:17;;;;;;;;;10.00;9.00;;;;;12.46;100.00;100162.13;5035516;28;45289;-73
2023/04/15 00:22:42;;;;;;;;;15.00;11.00;;;;;12.53;100.00;100163.88;5035268;28;63729;-72
2023/04/15 00:25:08;;;;;;;;;14.00;12.75;;;;;12.56;100.00;100166.47;5036929;28;60706;-73
2023/04/15 00:27:33;;;;;;;;;12.75;11.75;;;;;12.58;100.00;100167.38;5034925;28;46261;-73
2023/04/15 00:29:59;;;;;;;;;13.25;12.25;;;;;12.57;100.00;100162.97;5035388;28;45420;-72
2023/04/15 00:32:24;;;;;;;;;11.75;10.75;;;;;12.61;100.00;100162.91;5027854;28;59292;-72
2023/04/15 00:34:49;;;;;;;;;12.75;12.00;;;;;12.58;100.00;100158.53;5030017;28;45550;-72
2023/04/15 00:37:15;;;;;;;;;16.25;12.50;;;;;12.58;100.00;100151.47;5035561;28;45814;-73
2023/04/15 00:39:40;;;;;;;;;12.00;10.33;;;;;12.62;100.00;100159.38;5032790;28;66899;-72
2023/04/15 00:42:06;;;;;;;;;12.50;10.50;;;;;12.63;100.00;100166.47;5035403;28;45272;-72
2023/04/15 00:44:32;;;;;;;;;10.25;9.00;;;;;12.63;100.00;100169.97;5031273;28;65498;-73
2023/04/15 00:46:59;;;;;;;;;14.00;13.75;;;;;12.61;100.00;100166.44;5031772;28;45448;-73
2023/04/15 00:49:26;;;;;;;;;14.25;11.25;;;;;12.64;100.00;100166.44;5034651;28;45332;-73
2023/04/15 00:51:51;;;;;;;;;11.50;11.25;;;;;12.65;100.00;100159.38;5033677;28;45289;-73
2023/04/15 00:54:16;;;;;;;;;15.00;12.00;;;;;12.63;100.00;100153.22;5017001;28;45532;-72
2023/04/15 00:56:42;;;;;;;;;17.00;14.00;;;;;12.62;100.00;100154.09;5035643;28;46422;-72
2023/04/15 00:59:08;;;;;;;;;11.50;11.00;;;;;12.63;100.00;100156.75;5034001;28;67489;-72
2023/04/15 01:01:34;;;;;;;;;14.75;13.75;;;;;12.65;100.00;100154.06;5035435;28;45517;-72
2023/04/15 01:04:00;;;;;;;;;14.00;10.50;;;;;12.65;100.00;100154.06;5036003;28;45428;-72
2023/04/15 01:06:26;;;;;;;;;16.75;16.00;;;;;12.63;100.00;100153.22;5038961;28;46506;-73
2023/04/15 01:08:52;;;;;;;;;13.25;12.25;;;;;12.61;100.00;100141.75;5038668;28;45339;-73
2023/04/15 01:11:18;;;;;;;;;12.50;12.50;;;;;12.62;100.00;100143.50;5039885;28;45328;-71
2023/04/15 01:13:43;;;;;;;;;18.00;14.50;;;;;12.61;100.00;100150.56;5038675;28;45205;-73
2023/04/15 01:16:10;;;;;;;;;14.50;11.50;;;;;12.63;100.00;100132.91;5038123;28;65335;-72
2023/04/15 01:18:36;;;;;;;;;11.25;11.25;;;;;12.62;100.00;100138.19;5020302;28;45472;-73
2023/04/15 01:21:02;;;;;;;;;12.00;9.33;;;;;12.55;100.00;100127.66;5037252;28;45154;-73
2023/04/15 01:23:28;;;;;;;;;13.25;12.00;;;;;12.57;100.00;100130.31;5020993;28;45261;-72
2023/04/15 01:25:55;;;;;;;;;17.50;10.75;;;;;12.57;100.00;100131.19;5039213;28;67942;-72
2023/04/15 01:28:20;;;;;;;;;14.75;13.75;;;;;12.59;100.00;100141.75;5037492;28;62601;-74
2023/04/15 01:30:46;;;;;;;;;14.67;13.00;;;;;12.59;100.00;100144.41;5037429;28;45485;-72
2023/04/15 01:33:11;;;;;;;;;11.00;10.50;;;;;12.58;100.00;100135.59;5037678;28;45581;-73
2023/04/15 01:35:37;;;;;;;;;13.75;11.75;;;;;12.57;100.00;100146.19;5037816;28;61558;-72
2023/04/15 01:38:07;;;;;;;;;11.75;10.00;;;;;12.59;100.00;100139.13;5038133;28;45661;-72
2023/04/15 01:40:33;;;;;;;;;14.25;12.75;;;;;12.60;100.00;100148.81;5038562;28;45349;-73
2023/04/15 01:43:00;;;;;;;;;11.67;10.00;;;;;12.58;100.00;100153.25;5037358;28;45676;-73
2023/04/15 01:45:25;;;;;;;;;11.75;10.50;;;;;12.57;100.00;100147.06;5038031;28;45619;-73
2023/04/15 01:47:50;;;;;;;;;11.50;10.50;;;;;12.58;100.00;100153.25;5037931;28;49819;-73
2023/04/15 01:50:16;;;;;;;;;15.50;12.50;;;;;12.58;100.00;100162.06;5037786;28;45442;-73
2023/04/15 01:52:42;;;;;;;;;10.50;10.50;;;;;12.58;100.00;100161.19;5038791;28;45540;-74
2023/04/15 01:55:08;;;;;;;;;11.00;10.00;;;;;12.57;100.00;100156.78;5012457;28;46822;-73
2023/04/15 01:57:33;;;;;;;;;9.67;9.67;;;;;12.57;100.00;100154.16;5032284;28;45311;-72
2023/04/15 01:59:59;;;;;;;;;10.00;6.00;;;;;12.56;100.00;100155.00;5038261;28;45295;-72
2023/04/15 02:02:24;;;;;;;;;7.25;5.75;;;;;12.54;100.00;100160.34;5036758;28;61820;-73
2023/04/15 02:04:50;;;;;;;;;10.25;7.25;;;;;12.54;100.00;100155.03;5037142;28;46316;-71
2023/04/15 02:07:15;;;;;;;;;10.67;9.00;;;;;12.55;100.00;100161.19;5037624;28;49779;-72
2023/04/15 02:09:40;;;;;;;;;11.00;10.00;;;;;12.55;100.00;100169.16;5035552;28;60002;-72
2023/04/15 02:12:06;;;;;;;;;12.50;11.25;;;;;12.54;100.00;100160.34;5038185;28;45480;-73
2023/04/15 02:14:31;;;;;;;;;10.75;10.50;;;;;12.53;100.00;100166.53;5035294;28;45617;-74
2023/04/15 02:16:56;;;;;;;;;14.00;10.25;;;;;12.53;100.00;100181.53;5037125;28;45442;-72
2023/04/15 02:19:22;;;;;;;;;12.00;11.00;;;;;12.55;100.00;100185.91;5036951;28;64883;-72
2023/04/15 02:21:47;;;;;;;;;14.00;13.00;;;;;12.54;100.00;100185.94;5037363;28;57403;-72
2023/04/15 02:24:12;;;;;;;;;12.50;11.50;;;;;12.56;100.00;100198.25;5035405;28;46281;-73
2023/04/15 02:26:38;;;;;;;;;14.75;12.50;;;;;12.56;100.00;100190.31;5040963;28;58689;-72
2023/04/15 02:29:03;;;;;;;;;17.25;17.00;;;;;12.55;100.00;100192.97;5037805;28;45402;-72
2023/04/15 02:31:29;;;;;;;;;22.50;19.00;;;;;12.55;100.00;100187.69;5037525;28;64010;-72
2023/04/15 02:33:54;;;;;;;;;25.00;16.50;;;;;12.54;100.00;100192.09;5029417;28;45618;-72
2023/04/15 02:36:20;;;;;;;;;20.50;16.75;;;;;12.52;100.00;100196.56;5034335;28;65155;-73
2023/04/15 02:38:45;;;;;;;;;18.75;14.50;;;;;12.52;100.00;100200.97;5035757;28;45503;-72
2023/04/15 02:41:11;;;;;;;;;23.00;19.50;;;;;12.49;100.00;100203.63;5035562;28;45735;-73
2023/04/15 02:43:36;;;;;;;;;23.50;20.50;;;;;12.46;100.00;100207.16;5028293;28;46501;-72
2023/04/15 02:46:02;;;;;;;;;18.75;17.25;;;;;12.42;100.00;100210.75;5035626;28;45336;-72
2023/04/15 02:48:28;;;;;;;;;22.25;19.00;;;;;12.42;100.00;100221.31;5037623;28;45482;-72
2023/04/15 02:50:53;;;;;;;;;19.50;16.25;;;;;12.43;100.00;100219.56;5035146;28;45472;-73
2023/04/15 02:53:19;;;;;;;;;23.25;18.00;;;;;12.41;100.00;100224.88;5036095;28;63563;-73
2023/04/15 02:55:45;;;;;;;;;19.75;18.00;;;;;12.38;100.00;100230.16;5037788;28;45232;-73
2023/04/15 02:58:10;;;;;;;;;22.75;18.75;;;;;12.33;100.00;100226.66;5036099;28;45495;-72
2023/04/15 03:00:36;;;;;;;;;17.50;16.75;;;;;12.29;100.00;100224.91;5037499;28;45602;-72
2023/04/15 03:03:03;;;;;;;;;19.00;15.75;;;;;12.27;100.00;100230.22;5010348;28;49664;-72
2023/04/15 03:05:28;;;;;;;;;20.00;15.75;;;;;12.24;100.00;100238.19;5036141;28;45479;-72
2023/04/15 03:07:53;;;;;;;;;22.50;19.50;;;;;12.22;100.00;100250.56;5036271;28;59620;-73
2023/04/15 03:10:20;;;;;;;;;17.75;16.75;;;;;12.19;100.00;100258.50;5036990;28;45467;-73
2023/04/15 03:12:45;;;;;;;;;20.75;17.00;;;;;12.22;100.00;100260.25;5036266;28;46060;-74
2023/04/15 03:15:11;;;;;;;;;13.75;12.50;;;;;12.18;100.00;100258.50;5022675;28;45447;-74
2023/04/15 03:17:36;;;;;;;;;16.00;15.25;;;;;12.18;100.00;100272.63;5035921;28;45328;-72
2023/04/15 03:20:03;;;;;;;;;11.25;11.25;;;;;12.18;100.00;100269.09;5031077;28;45594;-72
2023/04/15 03:22:29;;;;;;;;;12.00;10.50;;;;;12.14;100.00;100264.69;5018888;28;46575;-72
2023/04/15 03:24:55;;;;;;;;;11.50;9.50;;;;;12.14;100.00;100276.16;5018008;28;45754;-71
2023/04/15 03:27:21;;;;;;;;;4.00;4.00;;;;;12.08;100.00;100278.84;5033710;28;45480;-72
2023/04/15 03:29:46;;;;;;;;;11.00;9.50;;;;;12.00;100.00;100276.25;5032481;28;45604;-71
2023/04/15 03:32:11;;;;;;;;;11.75;7.75;;;;;11.91;100.00;100270.97;5035896;28;70588;-73
2023/04/15 03:34:37;;;;;;;;;7.75;5.75;;;;;11.87;100.00;100278.91;5036564;28;45265;-72
2023/04/15 03:37:02;;;;;;;;;5.75;5.25;;;;;11.75;100.00;100274.50;5035802;28;64151;-72
2023/04/15 03:39:27;;;;;;;;;4.50;4.50;;;;;11.80;100.00;100283.31;5018637;28;47234;-72
2023/04/15 03:41:53;;;;;;;;;4.25;4.25;;;;;11.76;100.00;100286.84;5035513;28;65012;-72
2023/04/15 03:44:18;;;;;;;;;7.25;4.00;;;;;11.78;100.00;100293.91;5034229;28;67385;-72
2023/04/15 03:46:43;;;;;;;;;4.75;4.75;;;;;11.79;100.00;100289.50;5036496;28;52683;-72
2023/04/15 03:49:09;;;;;;;;;5.25;2.25;;;;;11.75;100.00;100293.03;5035566;28;62168;-72
2023/04/15 03:51:35;;;;;;;;;3.00;3.00;;;;;11.74;100.00;100289.50;5027935;28;46335;-72
2023/04/15 03:54:01;;;;;;;;;3.67;3.67;;;;;11.77;100.00;100291.25;5035701;28;45311;-71
2023/04/15 03:56:26;;;;;;;;;3.50;2.25;;;;;11.77;100.00;100294.81;5036575;28;45294;-72
2023/04/15 03:58:51;;;;;;;;;4.25;3.00;;;;;11.80;100.00;100301.84;5035540;28;45360;-72
2023/04/15 04:01:17;;;;;;;;;3.00;3.00;;;;;11.82;100.00;100296.56;5034733;28;45680;-73
2023/04/15 04:03:43;;;;;;;;;3.75;2.50;;;;;11.80;100.00;100307.13;5036422;28;45230;-72
2023/04/15 04:06:09;;;;;;;;;5.75;3.00;;;;;11.79;100.00;100305.38;5034179;28;60802;-73
2023/04/15 04:08:34;;;;;;;;;3.00;2.00;;;;;11.74;100.00;100304.50;5036434;28;45174;-72
2023/04/15 04:11:00;;;;;;;;;3.67;3.67;;;;;11.74;100.00;100315.97;5036239;28;48375;-72
2023/04/15 04:13:25;;;;;;;;;2.00;2.00;;;;;11.70;100.00;100310.66;5035761;28;45589;-72
2023/04/15 04:15:50;;;;;;;;;3.00;3.00;;;;;11.69;100.00;100320.38;5035553;28;63895;-73
2023/04/15 04:18:16;;;;;;;;;2.00;2.00;;;;;11.70;100.00;100324.78;5034255;28;59694;-72
2023/04/15 04:20:41;;;;;;;;;2.67;2.67;;;;;11.68;100.00;100323.03;5033859;28;69629;-74
2023/04/15 04:23:06;;;;;;;;;2.00;2.00;;;;;11.67;100.00;100321.28;5035467;28;67909;-71
2023/04/15 04:25:32;;;;;;;;;2.00;1.00;;;;;11.66;100.00;100327.41;5034300;28;64303;-72
2023/04/15 04:27:58;;;;;;;;;3.00;0.67;;;;;11.63;100.00;100328.31;5036664;28;45419;-72
2023/04/15 04:30:23;;;;;;;;;0.00;0.00;;;;;11.59;100.00;100333.59;5034920;28;46397;-73
2023/04/15 04:32:49;;;;;;;;;0.00;0.00;;;;;11.51;100.00;100339.78;5035627;28;45381;-72
2023/04/15 04:35:14;;;;;;;;;2.00;1.00;;;;;11.45;100.00;100334.53;5035900;28;45529;-72
2023/04/15 04:37:40;;;;;;;;;1.00;1.00;;;;;11.45;100.00;100329.22;5006057;28;45292;-71
2023/04/15 04:40:06;;;;;;;;;0.00;0.00;;;;;11.46;100.00;100338.03;5039995;28;45621;-72
2023/04/15 04:42:32;;;;;;;;;0.00;0.00;;;;;11.46;100.00;100345.97;5042085;28;45335;-72
2023/04/15 04:44:57;;;;;;;;;0.00;0.00;;;;;11.45;100.00;100341.53;5038953;28;45396;-72
2023/04/15 04:47:23;;;;;;;;;0.67;0.67;;;;;11.44;100.00;100353.00;5042389;28;54474;-72
2023/04/15 04:49:48;;;;;;;;;0.00;0.00;;;;;11.43;100.00;100352.13;5041020;28;65581;-72
2023/04/15 04:52:13;;;;;;;;;0.00;0.00;;;;;11.42;100.00;100352.13;5041852;28;67828;-71
2023/04/15 04:54:39;;;;;;;;;0.67;0.00;;;;;11.38;100.00;100359.16;5041614;28;54803;-72
2023/04/15 04:57:06;;;;;;;;;0.00;0.00;;;;;11.36;100.00;100360.94;5042105;28;45357;-72
2023/04/15 04:59:32;;;;;;;;;2.00;0.00;;;;;11.38;100.00;100384.72;5042291;28;46634;-73
2023/04/15 05:01:57;;;;;;;;;0.00;0.00;;;;;11.37;100.00;100381.22;5041737;28;45483;-73
2023/04/15 05:04:22;;;;;;;;;0.00;0.00;;;;;11.35;100.00;100382.09;5042771;28;45428;-72
2023/04/15 05:06:48;;;;;;;;;0.00;0.00;;;;;11.40;100.00;100399.72;5041514;28;45439;-72
2023/04/15 05:09:13;;;;;;;;;0.00;0.00;;;;;11.38;100.00;100400.59;5041306;28;50580;-72
2023/04/15 05:11:38;;;;;;;;;0.00;0.00;;;;;11.40;100.00;100410.28;5041384;28;67231;-73
2023/04/15 05:14:03;;;;;;;;;0.00;0.00;;;;;11.39;100.00;100412.91;5040525;28;53761;-72
2023/04/15 05:16:29;;;;;;;;;0.00;0.00;;;;;11.35;100.00;100412.06;5039350;28;61681;-73
2023/04/15 05:18:54;;;;;;;;;0.00;0.00;;;;;11.39;100.00;100423.50;5041842;28;46356;-71
2023/04/15 05:21:20;;;;;;;;;0.00;0.00;;;;;11.42;100.00;100439.38;5043208;28;46720;-73
2023/04/15 05:23:45;;;;;;;;;0.00;0.00;;;;;11.42;100.00;100426.16;5043206;28;53462;-72
2023/04/15 05:26:11;;;;;;;;;0.00;0.00;;;;;11.44;100.00;100448.16;5023825;28;45591;-73
2023/04/15 05:28:36;;;;;;;;;0.00;0.00;;;;;11.41;100.00;100435.84;5041001;28;50637;-72
2023/04/15 05:31:01;;;;;;;;;0.00;0.00;;;;;11.46;100.00;100443.78;5040530;28;64592;-72
2023/04/15 05:33:27;;;;;;;;;0.33;0.33;;;;;11.45;100.00;100457.84;5042640;28;45740;-72
2023/04/15 05:35:52;;;;;;;;;2.00;0.33;;;;;11.44;100.00;100456.97;5041081;28;62443;-72
2023/04/15 05:38:17;;;;;;;;;0.00;0.00;;;;;11.46;100.00;100459.66;5041262;28;68595;-73
2023/04/15 05:40:43;;;;;;;;;0.00;0.00;;;;;11.45;100.00;100455.22;5041405;28;55288;-72
2023/04/15 05:43:08;;;;;;;;;1.33;0.00;;;;;11.52;100.00;100473.75;5040294;28;63624;-73
2023/04/15 05:45:33;;;;;;;;;0.00;0.00;;;;;11.54;100.00;100485.19;5040781;28;59185;-73
2023/04/15 05:47:59;;;;;;;;;0.00;0.00;;;;;11.55;100.00;100492.25;5040544;28;62084;-72
2023/04/15 05:50:24;;;;;;;;;1.00;1.00;;;;;11.53;100.00;100488.72;5039937;28;45451;-72
2023/04/15 05:52:50;;;;;;;;;1.00;1.00;;;;;11.57;100.00;100494.03;5038055;28;45293;-72
2023/04/15 05:55:15;;;;;;;;;0.00;0.00;;;;;11.59;100.00;100494.91;5038141;28;45282;-72
2023/04/15 05:57:40;;;;;;;;;0.00;0.00;;;;;11.60;100.00;100507.25;5036820;28;68616;-72
2023/04/15 06:00:06;;;;;;;;;0.00;0.00;;;;;11.60;100.00;100518.69;5037423;28;62407;-73
2023/04/15 06:02:32;;;;;;;;;0.00;0.00;;;;;11.60;100.00;100517.81;5010264;28;45369;-72
2023/04/15 06:04:58;;;;;;;;;2.00;0.00;;;;;11.57;100.00;100520.47;5038040;28;45485;-73
2023/04/15 06:07:23;;;;;;;;;0.00;0.00;;;;;11.59;100.00;100531.94;5037162;28;45602;-75
2023/04/15 06:09:49;;;;;;;;;0.67;0.00;;;;;11.51;100.00;100519.59;5036089;28;45479;-74
2023/04/15 06:12:15;;;;;;;;;2.00;0.00;;;;;11.51;100.00;100531.94;5036458;28;45492;-75
2023/04/15 06:14:41;;;;;;;;;0.00;0.00;;;;;11.53;100.00;100544.25;5035986;28;45289;-73
2023/04/15 06:17:06;;;;;;;;;1.00;1.00;;;;;11.54;100.00;100550.44;5031719;28;71168;-72
2023/04/15 06:19:32;;;;;;;;;0.67;0.00;;;;;11.54;100.00;100559.22;5041941;28;57945;-72
2023/04/15 06:21:58;;;;;;;;;0.00;0.00;;;;;11.60;100.00;100563.66;5047313;28;45470;-74
2023/04/15 06:24:23;;;;;;;;;0.00;0.00;;;;;11.62;100.00;100574.25;5036848;28;45491;-74
2023/04/15 06:26:48;;;;;;;;;1.33;1.33;;;;;11.68;100.00;100580.44;5045121;28;67642;-73
2023/04/15 06:29:14;;;;;;;;;1.00;1.00;;;;;11.71;100.00;100585.72;5035204;28;45285;-73
2023/04/15 06:31:39;;;;;;;;;0.00;0.00;;;;;11.70;100.00;100585.72;5032016;28;45285;-73
2023/04/15 06:34:05;;;;;;;;;1.67;1.00;;;;;11.72;100.00;100589.28;5037965;28;45387;-73
2023/04/15 06:36:31;;;;;;;;;0.33;0.33;;;;;11.77;100.00;100603.38;5035053;28;69678;-73
2023/04/15 06:38:56;;;;;;;;;2.00;1.00;;;;;11.77;100.00;100600.72;5033972;28;45359;-72
2023/04/15 06:41:22;;;;;;;;;3.00;0.00;;;;;11.80;100.00;100613.97;5027825;28;45544;-73
2023/04/15 06:43:47;;;;;;;;;3.67;0.67;;;;;11.78;100.00;100607.81;5035173;28;63401;-74
2023/04/15 06:46:12;;;;;;;;;1.00;1.00;;;;;11.83;100.00;100624.59;5036341;28;71655;-75
2023/04/15 06:48:38;;;;;;;;;1.67;1.33;;;;;11.86;100.00;100627.25;5036554;28;50574;-75
2023/04/15 06:51:03;;;;;;;;;3.00;1.00;;;;;11.87;100.00;100629.00;5035561;28;63627;-72
2023/04/15 06:53:29;;;;;;;;;1.00;1.00;;;;;11.87;100.00;100636.94;5035985;28;59438;-72
2023/04/15 06:55:54;;;;;;;;;0.67;0.67;;;;;11.89;100.00;100642.25;5036205;28;45549;-72
2023/04/15 06:58:20;;;;;;;;;1.00;1.00;;;;;11.88;100.00;100644.03;5036620;28;45290;-74
2023/04/15 07:00:46;;;;;;;;;2.00;1.00;;;;;11.87;100.00;100642.22;5036575;28;45459;-72
2023/04/15 07:03:12;;;;;;;;;2.00;0.67;;;;;11.87;100.00;100642.22;5034929;28;45482;-75
2023/04/15 07:05:37;;;;;;;;;1.33;1.00;;;;;11.85;100.00;100657.22;5034903;28;45758;-73
2023/04/15 07:08:03;;;;;;;;;1.33;1.33;;;;;11.83;100.00;100653.69;5018423;28;45504;-73
2023/04/15 07:10:28;;;;;;;;;0.00;0.00;;;;;11.87;100.00;100665.16;5036200;28;45446;-73
2023/04/15 07:12:54;;;;;;;;;3.00;0.33;;;;;11.86;100.00;100679.28;5043864;28;45132;-74
2023/04/15 07:15:19;;;;;;;;;3.00;1.00;;;;;11.84;100.00;100679.28;5018148;28;54651;-73
2023/04/15 07:17:45;;;;;;;;;1.00;1.00;;;;;11.92;100.00;100689.88;5035873;28;45578;-73
2023/04/15 07:20:11;;;;;;;;;1.00;1.00;;;;;11.92;100.00;100693.38;5034480;28;46587;-75
2023/04/15 07:22:37;;;;;;;;;0.00;0.00;;;;;11.94;100.00;100698.72;5037257;28;45181;-72
2023/04/15 07:25:02;;;;;;;;;0.67;0.67;;;;;11.94;100.00;100701.34;5014950;28;45902;-73
2023/04/15 07:27:28;;;;;;;;;1.00;1.00;;;;;11.93;100.00;100708.41;5018868;28;45448;-72
2023/04/15 07:29:53;;;;;;;;;2.33;1.00;;;;;11.89;100.00;100703.97;5035917;28;45422;-73
2023/04/15 07:32:19;;;;;;;;;1.00;1.00;;;;;11.90;100.00;100708.38;5034206;28;45507;-74
2023/04/15 07:34:44;;;;;;;;;2.00;0.00;;;;;11.90;100.00;100726.91;5032339;28;70497;-73
2023/04/15 07:37:10;;;;;;;;;1.00;1.00;;;;;11.89;100.00;100722.50;5033683;28;45369;-74
2023/04/15 07:39:36;;;;;;;;;1.00;1.00;;;;;11.86;100.00;100717.19;5017227;28;45550;-73
2023/04/15 07:42:01;;;;;;;;;0.00;0.00;;;;;11.88;100.00;100731.31;5035290;28;45441;-72
2023/04/15 07:44:27;;;;;;;;;0.00;0.00;;;;;11.83;100.00;100733.06;5031309;28;45651;-72
2023/04/15 07:46:52;;;;;;;;;0.67;0.67;;;;;11.84;100.00;100741.88;5032704;28;45606;-72
2023/04/15 07:49:18;;;;;;;;;2.00;1.00;;;;;11.77;100.00;100744.47;5033293;28;45752;-72
2023/04/15 07:51:43;;;;;;;;;1.00;1.00;;;;;11.79;100.00;100753.28;5033835;28;45438;-74
2023/04/15 07:54:09;;;;;;;;;1.00;1.00;;;;;11.82;100.00;100759.50;5036053;28;45582;-73
2023/04/15 07:56:34;;;;;;;;;1.00;1.00;;;;;11.79;100.00;100768.28;5017479;28;53095;-73
2023/04/15 07:59:01;;;;;;;;;1.00;1.00;;;;;11.81;100.00;100774.44;5034905;28;46054;-73
2023/04/15 08:01:26;;;;;;;;;0.67;0.67;;;;;11.83;100.00;100785.09;5035662;28;45398;-73
2023/04/15 08:03:52;;;;;;;;;1.00;1.00;;;;;11.85;100.00;100784.22;5033998;28;46490;-73
2023/04/15 08:06:17;;;;;;;;;1.00;1.00;;;;;11.88;100.00;100793.91;5037557;28;45581;-73
2023/04/15 08:08:43;;;;;;;;;1.67;1.00;;;;;11.88;100.00;100786.88;5033741;28;45481;-74
2023/04/15 08:11:08;;;;;;;;;1.00;1.00;;;;;11.90;100.00;100790.41;5031962;28;56346;-74
2023/04/15 08:13:34;;;;;;;;;1.00;1.00;;;;;11.96;100.00;100803.66;5038249;28;47274;-73
2023/04/15 08:16:23;;;;;;;;;0.00;0.00;;;;;12.03;100.00;100812.50;5035345;28;45453;-75
2023/04/15 08:18:49;;;;;;;;;0.00;0.00;;;;;12.03;100.00;100818.69;5040898;28;45550;-74
2023/04/15 08:21:15;;;;;;;;;0.00;0.00;;;;;12.02;100.00;100816.91;5042800;28;45463;-73
2023/04/15 08:23:41;;;;;;;;;0.00;0.00;;;;;12.04;100.00;100830.19;5030077;28;47075;-73
2023/04/15 08:26:07;;;;;;;;;0.00;0.00;;;;;12.06;100.00;100831.94;5033985;28;45444;-74
2023/04/15 08:28:33;;;;;;;;;0.00;0.00;;;;;12.03;100.00;100834.56;5034700;28;45408;-72
2023/04/15 08:30:58;;;;;;;;;0.00;0.00;;;;;11.98;100.00;100840.72;5035882;28;45612;-71
2023/04/15 08:33:24;;;;;;;;;0.00;0.00;;;;;11.90;100.00;100845.97;5034674;28;72599;-70
2023/04/15 08:35:50;;;;;;;;;0.00;0.00;;;;;11.90;100.00;100858.31;5032360;28;45458;-70
2023/04/15 08:38:16;;;;;;;;;0.00;0.00;;;;;11.90;100.00;100856.56;5037622;28;45439;-71
2023/04/15 08:40:43;;;;;;;;;2.00;0.00;;;;;11.98;100.00;100876.00;5035543;28;45620;-71
2023/04/15 08:43:17;;;;;;;;;0.00;0.00;;;;;12.07;100.00;100868.13;5032823;28;45656;-71
2023/04/15 08:45:43;;;;;;;;;0.00;0.00;;;;;12.25;100.00;100884.97;5034002;28;45432;-72
2023/04/15 08:48:13;;;;;;;;;1.00;1.00;;;;;12.41;100.00;100884.19;5037251;28;45415;-71
2023/04/15 08:50:38;;;;;;;;;0.67;0.67;;;;;12.52;100.00;100890.41;5019791;28;45610;-71
2023/04/15 08:53:04;;;;;;;;;1.00;0.00;;;;;12.61;100.00;100896.59;5014780;28;66985;-69
2023/04/15 08:55:34;;;;;;;;;0.00;0.00;;;;;12.68;100.00;100898.41;5012357;28;49408;-71
2023/04/15 08:58:01;;;;;;;;;1.00;1.00;;;;;12.71;100.00;100901.94;5035079;28;45475;-71
2023/04/15 09:00:30;;;;;;;;;0.67;0.67;;;;;12.72;100.00;100908.13;5033395;28;45719;-71
2023/04/15 09:02:55;;;;;;;;;1.67;1.00;;;;;12.75;100.00;100909.03;5014726;28;45705;-70
2023/04/15 09:05:21;;;;;;;;;1.00;1.00;;;;;12.77;100.00;100917.84;5029679;28;45487;-74
2023/04/15 09:07:47;;;;;;;;;1.67;1.00;;;;;12.78;100.00;100921.38;5031874;28;45487;-73
2023/04/15 09:10:13;;;;;;;;;2.00;1.00;;;;;12.76;100.00;100931.09;5034905;28;45404;-74
2023/04/15 09:12:38;;;;;;;;;0.00;0.00;;;;;12.72;100.00;100935.50;5031840;28;65909;-77
2023/04/15 09:15:04;;;;;;;;;0.00;0.00;;;;;12.73;100.00;100931.06;5009175;28;64010;-77
2023/04/15 09:17:32;;;;;;;;;0.00;0.00;;;;;12.71;100.00;100946.09;5031789;28;45462;-77
2023/04/15 09:20:07;;;;;;;;;0.00;0.00;;;;;12.70;100.00;100952.28;5015274;28;45493;-72
2023/04/15 09:22:33;;;;;;;;;0.00;0.00;;;;;12.64;100.00;100961.09;5031186;28;46764;-77
2023/04/15 09:24:58;;;;;;;;;1.67;0.00;;;;;12.59;100.00;100963.72;5015320;28;46856;-72
2023/04/15 09:27:23;;;;;;;;;0.67;0.67;;;;;12.56;100.00;100966.31;5016287;28;65242;-72
2023/04/15 09:29:49;;;;;;;;;0.00;0.00;;;;;12.56;100.00;100984.88;5036717;28;63978;-72
2023/04/15 09:32:16;;;;;;;;;1.00;1.00;;;;;12.51;100.00;100986.59;5032832;28;46281;-71
2023/04/15 09:34:42;;;;;;;;;1.00;1.00;;;;;12.50;100.00;100976.91;5017960;28;45934;-73
2023/04/15 09:37:09;;;;;;;;;1.00;1.00;;;;;12.58;100.00;100990.19;5035850;28;45673;-72
2023/04/15 09:39:48;;;;;;;;;0.00;0.00;;;;;12.58;100.00;100995.50;5037356;28;45498;-73
2023/04/15 09:42:14;;;;;;;;;1.00;0.00;;;;;12.63;100.00;100992.88;5028432;28;47336;-72
2023/04/15 09:44:40;;;;;;;;;2.33;1.00;;;;;12.71;100.00;101001.72;5034819;28;45490;-73
2023/04/15 09:47:07;;;;;;;;;1.00;1.00;;;;;12.84;100.00;101007.09;5035027;28;45450;-73
2023/04/15 09:49:33;;;;;;;;;1.00;1.00;;;;;12.93;100.00;101008.91;5036696;28;61616;-73
2023/04/15 09:52:01;;;;;;;;;2.00;1.00;;;;;13.00;100.00;101015.13;5037141;28;46239;-72
2023/04/15 09:54:34;;;;;;;;;1.00;0.67;;;;;13.06;100.00;101029.28;5034140;28;45378;-73
2023/04/15 09:57:05;;;;;;;;;1.00;1.00;;;;;13.11;100.00;101024.00;5037078;28;45494;-73
2023/04/15 09:59:30;;;;;;;;;1.00;1.00;;;;;13.19;100.00;101034.63;5037371;28;45375;-74
2023/04/15 10:01:56;;;;;;;;;1.00;1.00;;;;;13.28;100.00;101037.34;5034160;28;46737;-73
2023/04/15 10:04:21;;;;;;;;;0.33;0.33;;;;;13.38;100.00;101027.66;5034238;28;46733;-73
2023/04/15 10:06:47;;;;;;;;;0.00;0.00;;;;;13.56;100.00;101039.19;5022325;28;65251;-73
2023/04/15 10:09:12;;;;;;;;;1.33;1.33;;;;;13.76;100.00;101049.84;5028464;28;45592;-72
2023/04/15 10:11:38;;;;;;;;;0.00;0.00;;;;;13.95;100.00;101052.50;5025410;28;66728;-74
2023/04/15 10:14:04;;;;;;;;;1.67;1.67;;;;;14.01;100.00;101048.09;5000717;28;45979;-73
2023/04/15 10:16:31;;;;;;;;;1.00;1.00;;;;;14.04;100.00;101058.69;5003101;28;46271;-73
2023/04/15 10:19:01;;;;;;;;;0.67;0.67;;;;;14.04;100.00;101058.69;5034476;28;45476;-73
2023/04/15 10:21:27;;;;;;;;;1.00;1.00;;;;;14.04;100.00;101063.13;5033150;28;46197;-73
2023/04/15 10:23:52;;;;;;;;;1.00;1.00;;;;;14.06;100.00;101072.88;5014536;22;48514;-74
2023/04/15 10:26:18;;;;;;;;;0.00;0.00;;;;;14.07;100.00;101074.66;5033407;28;62683;-74
2023/04/15 10:28:46;;;;;;;;;0.00;0.00;;;;;14.04;100.00;101076.41;5032604;28;45582;-74
2023/04/15 10:31:13;;;;;;;;;0.33;0.33;;;;;13.97;100.00;101077.28;5017412;28;47625;-75
2023/04/15 10:33:39;;;;;;;;;0.67;0.67;;;;;13.93;100.00;101081.72;5035910;28;45464;-75
2023/04/15 10:36:06;;;;;;;;;1.00;1.00;;;;;13.88;100.00;101088.78;5036487;28;45480;-77
2023/04/15 10:38:36;;;;;;;;;1.00;1.00;;;;;13.81;100.00;101092.31;5019169;28;45585;-76
2023/04/15 10:41:14;;;;;;;;;2.00;2.00;;;;;13.79;100.00;101092.28;5036615;28;46410;-78
2023/04/15 10:43:51;;;;;;;;;0.67;0.67;;;;;13.85;100.00;101088.78;5032664;28;45562;-75
2023/04/15 10:46:23;;;;;;;;;1.00;1.00;;;;;13.89;100.00;101098.50;5034673;28;45214;-73
2023/04/15 10:48:50;;;;;;;;;0.67;0.67;;;;;13.85;100.00;101094.09;5037226;28;45544;-74
2023/04/15 10:51:15;;;;;;;;;2.00;1.00;;;;;13.84;100.00;101101.16;5036720;28;46230;-70
2023/04/15 10:53:41;;;;;;;;;0.00;0.00;;;;;13.82;100.00;101120.63;5034876;28;45482;-74
2023/04/15 10:56:07;;;;;;;;;1.00;1.00;;;;;13.78;100.00;101110.88;5034002;28;45492;-76
2023/04/15 10:58:42;;;;;;;;;1.00;1.00;;;;;13.77;100.00;101117.94;5035698;28;61461;-73
2023/04/15 11:01:07;;;;;;;;;2.00;2.00;;;;;13.73;100.00;101121.47;5036661;28;46322;-78
2023/04/15 11:03:37;;;;;;;;;1.00;1.00;;;;;13.72;100.00;101132.09;5035760;28;68782;-74
2023/04/15 11:06:03;;;;;;;;;1.00;1.00;;;;;13.70;100.00;101145.38;5036175;28;45404;-76